Surface observations / Quebec / CYHU

Quebec | Canada | USA | France | UK | Europe | Elsewhere

Display: Info & Location for CYHU | Help decoding METAR

YHU SAINT-HUBERT ARPT QB CN
Raw surface observations for station CYHU
CYHU 230100Z AUTO 11005KT 9SM BKN090 19/14 A3012 RMK SLP199 DENSITY ALT 200FT=
CYHU 230000Z AUTO 12005KT 9SM OVC080 19/15 A3011 RMK SLP196 DENSITY ALT 400FT=
CYHU 222300Z AUTO 15006KT 9SM BKN070 OVC110 21/15 A3010 RMK SLP193 DENSITY ALT 500FT=
CYHU 222200Z AUTO 18008KT 9SM BKN100 BKN180 21/14 A3009 RMK SLP190 DENSITY ALT 600FT=
CYHU 222100Z AUTO 17009KT 9SM OVC100 22/14 A3009 RMK SLP188 DENSITY ALT 700FT=
CYHU 222000Z AUTO 14009KT 9SM OVC100 22/14 A3008 RMK SLP186 DENSITY ALT 700FT=
CYHU 221900Z AUTO 14011KT 9SM BKN043 BKN210 22/15 A3009 RMK SLP188 DENSITY ALT 700FT=
CYHU 221800Z AUTO 12009KT 9SM FEW030 OVC038 22/15 A3009 RMK SLP190 DENSITY ALT 700FT=
CYHU 221700Z AUTO 10011KT 9SM OVC046 22/15 A3009 RMK SLP189 DENSITY ALT 700FT=
CYHU 221600Z AUTO 12009KT 9SM OVC042 21/14 A3009 RMK SLP191 DENSITY ALT 500FT=
CYHU 221508Z AUTO 09010KT 6SM HZ OVC040 20/14 A3010 RMK SLP193 DENSITY ALT 500FT=
CYHU 221500Z AUTO 09009KT 5SM HZ OVC040 20/14 A3010 RMK SLP192 DENSITY ALT 500FT=
CYHU 221458Z AUTO 10010KT 5SM HZ OVC040 20/14 A3010 RMK SLP192 DENSITY ALT 500FT=
CYHU 221400Z AUTO 11006KT 9SM FEW035 OVC042 19/14 A3009 RMK SLP189 DENSITY ALT 400FT=
CYHU 221300Z AUTO 09007KT 9SM FEW033 BKN049 OVC070 18/14 A3008 RMK SLP187 DENSITY ALT 300FT=
CYHU 221200Z AUTO 10007KT 9SM OVC029 18/13 A3008 RMK SLP187 DENSITY ALT 200FT=
CYHU 221100Z AUTO 10003KT 9SM OVC038 16/13 A3007 RMK SLP183=
CYHU 221000Z AUTO 06006KT 9SM OVC036 16/12 A3006 RMK SLP180=
CYHU 220900Z AUTO 06003KT 010V080 9SM BKN200 15/12 A3005 RMK SLP175=
CYHU 220800Z AUTO 06003KT 9SM OVC190 15/12 A3004 RMK SLP172=
CYHU 220700Z AUTO 11006KT 9SM OVC190 16/12 A3004 RMK SLP173 DENSITY ALT 100FT=
CYHU 220600Z AUTO 12006KT 9SM FEW110 16/12 A3004 RMK SLP173 DENSITY ALT 100FT=
CYHU 220500Z AUTO 10005KT 9SM FEW120 16/13 A3004 RMK SLP172=
CYHU 220400Z AUTO 10004KT 9SM BKN150 OVC180 18/14 A3004 RMK SLP174 DENSITY ALT 200FT=
CYHU 220300Z AUTO 13005KT 9SM OVC100 18/14 A3005 RMK SLP177 DENSITY ALT 300FT=
CYHU 220200Z AUTO 11005KT 9SM SCT100 BKN130 OVC150 18/14 A3005 RMK SLP177 DENSITY ALT 300FT=
CYHU 220100Z AUTO 09003KT 9SM BKN090 OVC130 19/14 A3005 RMK SLP176 DENSITY ALT 400FT=